OCN7YZ EDDF-LGIR
Flight info
| Callsign | OCN7YZ |
|---|---|
| Flight time | 2h 42m |
| Altitude | 39000 |
| Route | CINDY8S/18 CINDY Z74 LAMPU DCT NOMBO Y161 MAH DCT VAVOR DCT RADIZ DCT NIPEL DCT ELTIB DCT GLOMY DCT INLOT DCT PINDO DCT PIKOS DCT KEA UL607 GIVIS T514 XAVIS XAVIS1A |
| Aircraft | A320/M-SDE2E3FGIJ1LORWXYZ/HB1 |
Departure
| Time | 2026-04-15 13:12 |
|---|---|
| Airport | Frankfurt Main Airport (EDDF) |
Arrival
| Time | 2026-04-15 15:55 |
|---|---|
| Airport | Heraklion International Nikos Kazantzakis Airport (LGIR) |
| Time | Latitude | Longitude | Altitude | Speed | Heading |
|---|---|---|---|---|---|
| 2026-04-15 12:46 | 50.04638 | 8.56662 | 363 ft | 0 kts | 115° |
| 2026-04-15 12:56 | 50.04644 | 8.56640 | 356 ft | 4 kts | 114° |
| 2026-04-15 12:56 | 50.04655 | 8.56602 | 362 ft | 4 kts | 114° |
| 2026-04-15 12:56 | 50.04667 | 8.56565 | 358 ft | 4 kts | 124° |
| 2026-04-15 12:57 | 50.04683 | 8.56539 | 356 ft | 4 kts | 177° |
| 2026-04-15 12:57 | 50.04689 | 8.56539 | 363 ft | 2 kts | 205° |
| 2026-04-15 12:57 | 50.04667 | 8.56522 | 361 ft | 4 kts | 205° |
| 2026-04-15 12:57 | 50.04642 | 8.56505 | 362 ft | 4 kts | 205° |
| 2026-04-15 12:58 | 50.04618 | 8.56487 | 358 ft | 4 kts | 205° |
| 2026-04-15 12:58 | 50.04593 | 8.56470 | 358 ft | 4 kts | 205° |
| 2026-04-15 12:58 | 50.04580 | 8.56460 | 359 ft | 0 kts | 205° |
| 2026-04-15 13:01 | 50.04577 | 8.56458 | 362 ft | 4 kts | 205° |
| 2026-04-15 13:02 | 50.04510 | 8.56366 | 364 ft | 17 kts | 245° |
| 2026-04-15 13:02 | 50.04480 | 8.56235 | 359 ft | 6 kts | 251° |
| 2026-04-15 13:02 | 50.04477 | 8.56224 | 356 ft | 0 kts | 250° |
| 2026-04-15 13:04 | 50.04474 | 8.56209 | 360 ft | 7 kts | 250° |
| 2026-04-15 13:04 | 50.04440 | 8.56062 | 361 ft | 19 kts | 249° |
| 2026-04-15 13:04 | 50.04341 | 8.56055 | 362 ft | 16 kts | 159° |
| 2026-04-15 13:04 | 50.04291 | 8.56169 | 357 ft | 15 kts | 91° |
| 2026-04-15 13:05 | 50.04199 | 8.56264 | 355 ft | 16 kts | 160° |
| 2026-04-15 13:05 | 50.04114 | 8.56227 | 358 ft | 17 kts | 246° |
| 2026-04-15 13:05 | 50.04061 | 8.56003 | 354 ft | 27 kts | 249° |
| 2026-04-15 13:05 | 50.03999 | 8.55745 | 352 ft | 25 kts | 249° |
| 2026-04-15 13:06 | 50.03938 | 8.55487 | 357 ft | 26 kts | 250° |
| 2026-04-15 13:06 | 50.03875 | 8.55225 | 357 ft | 26 kts | 249° |
| 2026-04-15 13:06 | 50.03810 | 8.54954 | 348 ft | 27 kts | 249° |
| 2026-04-15 13:06 | 50.03741 | 8.54666 | 350 ft | 29 kts | 249° |
| 2026-04-15 13:07 | 50.03671 | 8.54371 | 346 ft | 30 kts | 250° |
| 2026-04-15 13:07 | 50.03600 | 8.54075 | 350 ft | 24 kts | 249° |
| 2026-04-15 13:07 | 50.03540 | 8.53824 | 338 ft | 25 kts | 249° |
| 2026-04-15 13:07 | 50.03478 | 8.53567 | 338 ft | 24 kts | 250° |
| 2026-04-15 13:08 | 50.03420 | 8.53321 | 334 ft | 25 kts | 250° |
| 2026-04-15 13:08 | 50.03365 | 8.53089 | 335 ft | 18 kts | 249° |
| 2026-04-15 13:08 | 50.03326 | 8.52928 | 333 ft | 15 kts | 250° |
| 2026-04-15 13:08 | 50.03298 | 8.52809 | 330 ft | 8 kts | 250° |
| 2026-04-15 13:09 | 50.03286 | 8.52760 | 333 ft | 0 kts | 249° |
| 2026-04-15 13:09 | 50.03276 | 8.52721 | 330 ft | 11 kts | 249° |
| 2026-04-15 13:10 | 50.03263 | 8.52610 | 335 ft | 9 kts | 256° |
| 2026-04-15 13:10 | 50.03226 | 8.52596 | 333 ft | 2 kts | 179° |
| 2026-04-15 13:10 | 50.03224 | 8.52596 | 334 ft | 0 kts | 179° |
| 2026-04-15 13:11 | 50.03170 | 8.52596 | 332 ft | 18 kts | 181° |
| 2026-04-15 13:11 | 50.03035 | 8.52598 | 331 ft | 20 kts | 179° |
| 2026-04-15 13:11 | 50.02930 | 8.52599 | 334 ft | 30 kts | 179° |
| 2026-04-15 13:11 | 50.02473 | 8.52602 | 335 ft | 98 kts | 180° |
| 2026-04-15 13:12 | 50.01597 | 8.52611 | 332 ft | 151 kts | 180° |
| 2026-04-15 13:12 | 50.00406 | 8.52617 | 416 ft | 184 kts | 180° |
| 2026-04-15 13:12 | 49.99152 | 8.52611 | 1134 ft | 179 kts | 180° |
| 2026-04-15 13:12 | 49.97900 | 8.52667 | 1787 ft | 183 kts | 169° |
| 2026-04-15 13:13 | 49.96703 | 8.53442 | 2134 ft | 189 kts | 142° |
| 2026-04-15 13:13 | 49.95781 | 8.54994 | 2435 ft | 205 kts | 119° |
| 2026-04-15 13:13 | 49.95078 | 8.57012 | 2764 ft | 220 kts | 117° |
| 2026-04-15 13:13 | 49.94357 | 8.59184 | 3312 ft | 227 kts | 109° |
| 2026-04-15 13:14 | 49.94021 | 8.61589 | 4076 ft | 230 kts | 93° |
| 2026-04-15 13:14 | 49.93949 | 8.64105 | 4654 ft | 238 kts | 94° |
| 2026-04-15 13:14 | 49.93817 | 8.66749 | 5127 ft | 257 kts | 101° |
| 2026-04-15 13:14 | 49.93181 | 8.69385 | 5780 ft | 265 kts | 122° |
| 2026-04-15 13:15 | 49.91956 | 8.71530 | 6532 ft | 270 kts | 142° |
| 2026-04-15 13:15 | 49.90415 | 8.73239 | 7314 ft | 273 kts | 144° |
| 2026-04-15 13:15 | 49.88910 | 8.75060 | 8076 ft | 276 kts | 135° |
| 2026-04-15 13:15 | 49.87723 | 8.77408 | 8811 ft | 280 kts | 121° |
| 2026-04-15 13:16 | 49.86776 | 8.80068 | 9547 ft | 283 kts | 120° |
| 2026-04-15 13:16 | 49.85828 | 8.82720 | 10227 ft | 288 kts | 120° |
| 2026-04-15 13:16 | 49.84825 | 8.85504 | 10599 ft | 306 kts | 120° |
| 2026-04-15 13:16 | 49.83741 | 8.88493 | 10780 ft | 329 kts | 120° |
| 2026-04-15 13:17 | 49.82589 | 8.91653 | 11173 ft | 342 kts | 120° |
| 2026-04-15 13:17 | 49.81409 | 8.94889 | 11787 ft | 347 kts | 120° |
| 2026-04-15 13:17 | 49.80213 | 8.98165 | 12393 ft | 352 kts | 120° |
| 2026-04-15 13:17 | 49.78999 | 9.01485 | 13020 ft | 356 kts | 120° |
| 2026-04-15 13:18 | 49.77772 | 9.04844 | 13650 ft | 360 kts | 120° |
| 2026-04-15 13:18 | 49.76576 | 9.08265 | 14268 ft | 363 kts | 114° |
| 2026-04-15 13:18 | 49.75753 | 9.11927 | 14843 ft | 367 kts | 104° |
| 2026-04-15 13:18 | 49.75101 | 9.15749 | 15422 ft | 370 kts | 109° |
| 2026-04-15 13:19 | 49.74028 | 9.19388 | 15975 ft | 373 kts | 121° |
| 2026-04-15 13:19 | 49.72520 | 9.22658 | 16168 ft | 374 kts | 131° |
| 2026-04-15 13:19 | 49.70797 | 9.25674 | 16217 ft | 373 kts | 132° |
| 2026-04-15 13:19 | 49.69080 | 9.28679 | 16220 ft | 373 kts | 131° |
| 2026-04-15 13:20 | 49.67361 | 9.31697 | 16220 ft | 373 kts | 131° |
| 2026-04-15 13:20 | 49.65649 | 9.34706 | 16220 ft | 373 kts | 131° |
| 2026-04-15 13:20 | 49.63935 | 9.37724 | 16220 ft | 373 kts | 131° |
| 2026-04-15 13:20 | 49.62179 | 9.40613 | 16219 ft | 373 kts | 138° |
| 2026-04-15 13:21 | 49.60122 | 9.43022 | 16219 ft | 372 kts | 149° |
| 2026-04-15 13:21 | 49.57890 | 9.45060 | 16219 ft | 372 kts | 150° |
| 2026-04-15 13:21 | 49.55664 | 9.47086 | 16219 ft | 372 kts | 150° |
| 2026-04-15 13:21 | 49.53434 | 9.49120 | 16219 ft | 372 kts | 150° |
| 2026-04-15 13:22 | 49.51208 | 9.51156 | 16221 ft | 372 kts | 149° |
| 2026-04-15 13:22 | 49.48979 | 9.53195 | 16412 ft | 375 kts | 150° |
| 2026-04-15 13:22 | 49.46737 | 9.55246 | 16884 ft | 376 kts | 149° |
| 2026-04-15 13:22 | 49.44488 | 9.57311 | 17347 ft | 379 kts | 149° |
| 2026-04-15 13:23 | 49.42212 | 9.59388 | 17853 ft | 381 kts | 150° |
| 2026-04-15 13:23 | 49.39929 | 9.61472 | 18119 ft | 383 kts | 150° |
| 2026-04-15 13:23 | 49.37624 | 9.63566 | 18584 ft | 386 kts | 150° |
| 2026-04-15 13:23 | 49.35343 | 9.65760 | 19067 ft | 389 kts | 142° |
| 2026-04-15 13:24 | 49.33416 | 9.68703 | 19534 ft | 392 kts | 131° |
| 2026-04-15 13:24 | 49.31608 | 9.71858 | 20001 ft | 395 kts | 131° |
| 2026-04-15 13:24 | 49.29820 | 9.75011 | 20456 ft | 398 kts | 130° |
| 2026-04-15 13:24 | 49.28006 | 9.78228 | 20888 ft | 401 kts | 130° |
| 2026-04-15 13:25 | 49.26175 | 9.81470 | 21318 ft | 404 kts | 130° |
| 2026-04-15 13:25 | 49.24330 | 9.84721 | 21736 ft | 407 kts | 130° |
| 2026-04-15 13:25 | 49.22454 | 9.88014 | 22142 ft | 410 kts | 130° |
| 2026-04-15 13:25 | 49.20575 | 9.91301 | 22539 ft | 412 kts | 130° |
| 2026-04-15 13:26 | 49.18676 | 9.94617 | 22915 ft | 415 kts | 130° |
| 2026-04-15 13:26 | 49.16765 | 9.97945 | 23307 ft | 418 kts | 130° |
| 2026-04-15 13:26 | 49.14842 | 10.01296 | 23686 ft | 421 kts | 130° |
| 2026-04-15 13:26 | 49.12903 | 10.04670 | 24064 ft | 423 kts | 130° |
| 2026-04-15 13:27 | 49.10956 | 10.08055 | 24410 ft | 426 kts | 130° |
| 2026-04-15 13:27 | 49.08988 | 10.11462 | 24764 ft | 428 kts | 130° |
| 2026-04-15 13:27 | 49.07011 | 10.14880 | 25093 ft | 431 kts | 130° |
| 2026-04-15 13:27 | 49.05026 | 10.18313 | 25413 ft | 434 kts | 130° |
| 2026-04-15 13:28 | 49.03016 | 10.21784 | 25723 ft | 436 kts | 130° |
| 2026-04-15 13:28 | 49.01002 | 10.25264 | 26028 ft | 439 kts | 129° |
| 2026-04-15 13:28 | 48.99004 | 10.28712 | 26335 ft | 442 kts | 129° |
| 2026-04-15 13:28 | 48.96969 | 10.32228 | 26618 ft | 445 kts | 129° |
| 2026-04-15 13:29 | 48.94900 | 10.35798 | 26741 ft | 452 kts | 129° |
| 2026-04-15 13:29 | 48.92800 | 10.39413 | 26876 ft | 458 kts | 129° |
| 2026-04-15 13:29 | 48.90673 | 10.43066 | 26997 ft | 464 kts | 129° |
| 2026-04-15 13:29 | 48.88514 | 10.46763 | 27127 ft | 470 kts | 129° |
| 2026-04-15 13:30 | 48.86336 | 10.50485 | 27253 ft | 473 kts | 129° |
| 2026-04-15 13:30 | 48.84133 | 10.54243 | 27385 ft | 478 kts | 129° |
| 2026-04-15 13:30 | 48.81915 | 10.58023 | 27508 ft | 482 kts | 129° |
| 2026-04-15 13:30 | 48.79668 | 10.61846 | 27632 ft | 486 kts | 129° |
| 2026-04-15 13:31 | 48.77411 | 10.65681 | 27761 ft | 490 kts | 129° |
| 2026-04-15 13:31 | 48.75136 | 10.69542 | 27926 ft | 492 kts | 129° |
| 2026-04-15 13:31 | 48.72884 | 10.73360 | 28168 ft | 492 kts | 129° |
| 2026-04-15 13:31 | 48.70604 | 10.77222 | 28421 ft | 492 kts | 129° |
| 2026-04-15 13:32 | 48.68325 | 10.81083 | 28680 ft | 492 kts | 129° |
| 2026-04-15 13:32 | 48.66043 | 10.84948 | 28946 ft | 492 kts | 129° |
| 2026-04-15 13:32 | 48.63751 | 10.88808 | 29194 ft | 492 kts | 129° |
| 2026-04-15 13:32 | 48.61461 | 10.92650 | 29489 ft | 491 kts | 129° |
| 2026-04-15 13:33 | 48.59175 | 10.96487 | 29763 ft | 491 kts | 129° |
| 2026-04-15 13:33 | 48.56894 | 11.00315 | 30025 ft | 491 kts | 128° |
| 2026-04-15 13:33 | 48.54611 | 11.04147 | 30293 ft | 490 kts | 128° |
| 2026-04-15 13:33 | 48.52328 | 11.07971 | 30565 ft | 490 kts | 128° |
| 2026-04-15 13:34 | 48.50042 | 11.11792 | 30820 ft | 489 kts | 128° |
| 2026-04-15 13:34 | 48.47771 | 11.15582 | 31078 ft | 489 kts | 128° |
| 2026-04-15 13:34 | 48.45483 | 11.19401 | 31295 ft | 489 kts | 128° |
| 2026-04-15 13:34 | 48.43198 | 11.23205 | 31551 ft | 489 kts | 128° |
| 2026-04-15 13:35 | 48.40912 | 11.27007 | 31791 ft | 489 kts | 128° |
| 2026-04-15 13:35 | 48.38628 | 11.30801 | 32047 ft | 488 kts | 128° |
| 2026-04-15 13:35 | 48.36374 | 11.34530 | 32296 ft | 488 kts | 127° |
| 2026-04-15 13:35 | 48.34088 | 11.38303 | 32527 ft | 488 kts | 127° |
| 2026-04-15 13:36 | 48.31809 | 11.42062 | 32756 ft | 487 kts | 127° |
| 2026-04-15 13:36 | 48.29524 | 11.45829 | 32956 ft | 487 kts | 127° |
| 2026-04-15 13:36 | 48.27248 | 11.49586 | 33180 ft | 487 kts | 127° |
| 2026-04-15 13:36 | 48.24969 | 11.53342 | 33395 ft | 486 kts | 127° |
| 2026-04-15 13:37 | 48.22684 | 11.57095 | 33643 ft | 485 kts | 126° |
| 2026-04-15 13:37 | 48.20431 | 11.60782 | 34219 ft | 477 kts | 126° |
| 2026-04-15 13:37 | 48.18195 | 11.64431 | 34596 ft | 473 kts | 126° |
| 2026-04-15 13:37 | 48.15974 | 11.68054 | 34883 ft | 471 kts | 126° |
| 2026-04-15 13:38 | 48.13756 | 11.71677 | 35113 ft | 471 kts | 126° |
| 2026-04-15 13:38 | 48.11544 | 11.75292 | 35197 ft | 470 kts | 126° |
| 2026-04-15 13:38 | 48.07121 | 11.82501 | 35210 ft | 469 kts | 126° |
| 2026-04-15 13:39 | 48.02700 | 11.89691 | 35211 ft | 469 kts | 127° |
| 2026-04-15 13:39 | 47.98280 | 11.96851 | 35395 ft | 469 kts | 127° |
| 2026-04-15 13:40 | 47.96097 | 12.00375 | 35611 ft | 469 kts | 127° |
| 2026-04-15 13:40 | 47.93879 | 12.03949 | 35818 ft | 469 kts | 127° |
| 2026-04-15 13:40 | 47.91660 | 12.07524 | 36020 ft | 469 kts | 127° |
| 2026-04-15 13:40 | 47.89451 | 12.11083 | 36213 ft | 469 kts | 127° |
| 2026-04-15 13:41 | 47.87234 | 12.14643 | 36395 ft | 469 kts | 128° |
| 2026-04-15 13:41 | 47.85013 | 12.18205 | 36577 ft | 468 kts | 128° |
| 2026-04-15 13:41 | 47.82796 | 12.21756 | 36763 ft | 468 kts | 128° |
| 2026-04-15 13:41 | 47.80590 | 12.25291 | 36991 ft | 466 kts | 128° |
| 2026-04-15 13:42 | 47.78388 | 12.28814 | 37154 ft | 464 kts | 129° |
| 2026-04-15 13:42 | 47.76187 | 12.32328 | 37206 ft | 462 kts | 129° |
| 2026-04-15 13:42 | 47.71818 | 12.39294 | 37202 ft | 459 kts | 129° |
| 2026-04-15 13:43 | 47.67456 | 12.46219 | 37202 ft | 458 kts | 129° |
| 2026-04-15 13:43 | 47.63102 | 12.53105 | 37203 ft | 458 kts | 130° |
| 2026-04-15 13:44 | 47.58546 | 12.59727 | 37198 ft | 460 kts | 134° |
| 2026-04-15 13:44 | 47.53758 | 12.66027 | 37203 ft | 460 kts | 136° |
| 2026-04-15 13:45 | 47.48954 | 12.72283 | 37207 ft | 460 kts | 135° |
| 2026-04-15 13:47 | 47.30096 | 12.97539 | 38030 ft | 457 kts | 136° |
| 2026-04-15 13:47 | 47.27733 | 13.00677 | 38175 ft | 457 kts | 136° |
| 2026-04-15 13:47 | 47.25368 | 13.03812 | 38315 ft | 457 kts | 136° |
| 2026-04-15 13:48 | 47.23009 | 13.06938 | 38449 ft | 457 kts | 136° |
| 2026-04-15 13:48 | 47.20649 | 13.10067 | 38578 ft | 457 kts | 136° |
| 2026-04-15 13:48 | 47.18291 | 13.13187 | 38702 ft | 457 kts | 137° |
| 2026-04-15 13:48 | 47.15927 | 13.16313 | 38828 ft | 456 kts | 137° |
| 2026-04-15 13:49 | 47.13570 | 13.19428 | 38951 ft | 456 kts | 137° |
| 2026-04-15 13:49 | 47.11210 | 13.22540 | 39085 ft | 455 kts | 137° |
| 2026-04-15 13:49 | 47.08857 | 13.25643 | 39210 ft | 455 kts | 137° |
| 2026-04-15 13:49 | 47.06493 | 13.28754 | 39208 ft | 456 kts | 137° |
| 2026-04-15 13:50 | 47.01786 | 13.34933 | 39193 ft | 456 kts | 137° |
| 2026-04-15 13:50 | 46.97046 | 13.41135 | 39205 ft | 457 kts | 137° |
| 2026-04-15 13:51 | 46.92309 | 13.47329 | 39199 ft | 456 kts | 137° |
| 2026-04-15 13:51 | 46.87571 | 13.53501 | 39203 ft | 456 kts | 137° |
| 2026-04-15 13:52 | 46.82826 | 13.59664 | 39210 ft | 456 kts | 137° |
| 2026-04-15 13:52 | 46.78070 | 13.65834 | 39208 ft | 457 kts | 137° |
| 2026-04-15 13:53 | 46.73348 | 13.71943 | 39219 ft | 456 kts | 138° |
| 2026-04-15 13:53 | 46.68600 | 13.78071 | 39223 ft | 456 kts | 138° |
| 2026-04-15 13:54 | 46.63856 | 13.84172 | 39228 ft | 455 kts | 138° |
| 2026-04-15 13:54 | 46.59105 | 13.90266 | 39212 ft | 457 kts | 138° |
| 2026-04-15 13:55 | 46.54302 | 13.96412 | 39212 ft | 462 kts | 138° |
| 2026-04-15 13:55 | 46.49454 | 14.02610 | 39210 ft | 467 kts | 138° |
| 2026-04-15 13:56 | 46.44602 | 14.08953 | 39205 ft | 470 kts | 137° |
| 2026-04-15 13:56 | 46.39865 | 14.15403 | 39215 ft | 470 kts | 136° |
| 2026-04-15 13:57 | 46.35082 | 14.21875 | 39210 ft | 470 kts | 137° |
| 2026-04-15 13:57 | 46.30266 | 14.28288 | 39219 ft | 471 kts | 137° |
| 2026-04-15 13:58 | 46.25426 | 14.34707 | 39227 ft | 472 kts | 137° |
| 2026-04-15 13:58 | 46.20594 | 14.41119 | 39235 ft | 472 kts | 137° |
| 2026-04-15 13:59 | 46.15784 | 14.47485 | 39237 ft | 472 kts | 137° |
| 2026-04-15 13:59 | 46.11725 | 14.52842 | 39239 ft | 472 kts | 137° |
| 2026-04-15 14:00 | 46.06876 | 14.59223 | 39241 ft | 472 kts | 137° |
| 2026-04-15 14:00 | 46.02014 | 14.65623 | 39238 ft | 472 kts | 137° |
| 2026-04-15 14:01 | 45.94772 | 14.75124 | 39242 ft | 471 kts | 137° |
| 2026-04-15 14:02 | 45.89929 | 14.81454 | 39239 ft | 471 kts | 138° |
| 2026-04-15 14:02 | 45.85080 | 14.87781 | 39227 ft | 470 kts | 138° |
| 2026-04-15 14:03 | 45.80232 | 14.94080 | 39223 ft | 469 kts | 138° |
| 2026-04-15 14:03 | 45.75388 | 15.00351 | 39219 ft | 469 kts | 138° |
| 2026-04-15 14:04 | 45.70548 | 15.06605 | 39218 ft | 468 kts | 138° |
| 2026-04-15 14:04 | 45.65697 | 15.12857 | 39210 ft | 469 kts | 139° |
| 2026-04-15 14:05 | 45.60885 | 15.19051 | 39205 ft | 468 kts | 139° |
| 2026-04-15 14:05 | 45.56047 | 15.25276 | 39214 ft | 468 kts | 139° |
| 2026-04-15 14:06 | 45.51196 | 15.31490 | 39210 ft | 468 kts | 139° |
| 2026-04-15 14:06 | 45.46350 | 15.37684 | 39193 ft | 468 kts | 139° |
| 2026-04-15 14:07 | 45.41496 | 15.43877 | 39201 ft | 468 kts | 139° |
| 2026-04-15 14:07 | 45.36650 | 15.50043 | 39199 ft | 467 kts | 139° |
| 2026-04-15 14:08 | 45.31800 | 15.56198 | 39207 ft | 467 kts | 139° |
| 2026-04-15 14:08 | 45.26952 | 15.62328 | 39211 ft | 467 kts | 139° |
| 2026-04-15 14:09 | 45.22103 | 15.68450 | 39202 ft | 467 kts | 139° |
| 2026-04-15 14:09 | 45.17284 | 15.74516 | 39205 ft | 466 kts | 139° |
| 2026-04-15 14:10 | 45.12388 | 15.80664 | 39207 ft | 466 kts | 139° |
| 2026-04-15 14:10 | 45.07540 | 15.86750 | 39204 ft | 466 kts | 139° |
| 2026-04-15 14:11 | 45.02709 | 15.92797 | 39202 ft | 466 kts | 139° |
| 2026-04-15 14:11 | 44.97843 | 15.98864 | 39198 ft | 465 kts | 139° |
| 2026-04-15 14:12 | 44.92984 | 16.04911 | 39202 ft | 465 kts | 139° |
| 2026-04-15 14:12 | 44.88143 | 16.10950 | 39182 ft | 464 kts | 140° |
| 2026-04-15 14:13 | 44.83316 | 16.16929 | 39177 ft | 464 kts | 140° |
| 2026-04-15 14:13 | 44.78459 | 16.22920 | 39178 ft | 464 kts | 140° |
| 2026-04-15 14:14 | 44.73599 | 16.28899 | 39179 ft | 464 kts | 140° |
| 2026-04-15 14:14 | 44.68739 | 16.34883 | 39183 ft | 463 kts | 140° |
| 2026-04-15 14:15 | 44.63897 | 16.40842 | 39200 ft | 463 kts | 140° |
| 2026-04-15 14:15 | 44.59044 | 16.46789 | 39183 ft | 463 kts | 140° |
| 2026-04-15 14:16 | 44.54191 | 16.52723 | 39181 ft | 463 kts | 140° |
| 2026-04-15 14:16 | 44.49335 | 16.58640 | 39178 ft | 462 kts | 140° |
| 2026-04-15 14:17 | 44.44504 | 16.64507 | 39177 ft | 462 kts | 140° |
| 2026-04-15 14:17 | 44.39641 | 16.70395 | 39176 ft | 462 kts | 140° |
| 2026-04-15 14:18 | 44.34782 | 16.76289 | 39171 ft | 462 kts | 140° |
| 2026-04-15 14:18 | 44.29913 | 16.82178 | 39165 ft | 462 kts | 140° |
| 2026-04-15 14:19 | 44.24990 | 16.87942 | 39161 ft | 462 kts | 141° |
| 2026-04-15 14:19 | 44.20022 | 16.93625 | 39162 ft | 462 kts | 142° |
| 2026-04-15 14:20 | 44.15050 | 16.99309 | 39157 ft | 462 kts | 142° |
| 2026-04-15 14:20 | 44.10094 | 17.04990 | 39157 ft | 462 kts | 142° |
| 2026-04-15 14:21 | 44.05166 | 17.10641 | 39153 ft | 462 kts | 142° |
| 2026-04-15 14:21 | 44.00218 | 17.16318 | 39144 ft | 461 kts | 142° |
| 2026-04-15 14:22 | 43.95255 | 17.21997 | 39149 ft | 461 kts | 142° |
| 2026-04-15 14:22 | 43.90300 | 17.27638 | 39130 ft | 460 kts | 142° |
| 2026-04-15 14:23 | 43.85360 | 17.33248 | 39135 ft | 459 kts | 142° |
| 2026-04-15 14:23 | 43.80421 | 17.38845 | 39135 ft | 458 kts | 142° |
| 2026-04-15 14:24 | 43.75485 | 17.44433 | 39122 ft | 458 kts | 142° |
| 2026-04-15 14:24 | 43.70546 | 17.50005 | 39121 ft | 458 kts | 142° |
| 2026-04-15 14:25 | 43.65639 | 17.55530 | 39117 ft | 458 kts | 142° |
| 2026-04-15 14:25 | 43.60704 | 17.61083 | 39113 ft | 458 kts | 142° |
| 2026-04-15 14:26 | 43.55756 | 17.66632 | 39108 ft | 457 kts | 142° |
| 2026-04-15 14:26 | 43.50866 | 17.72255 | 39101 ft | 458 kts | 141° |
| 2026-04-15 14:27 | 43.46027 | 17.77977 | 39096 ft | 458 kts | 141° |
| 2026-04-15 14:27 | 43.41195 | 17.83671 | 39088 ft | 457 kts | 141° |
| 2026-04-15 14:28 | 43.36340 | 17.89326 | 39088 ft | 457 kts | 141° |
| 2026-04-15 14:28 | 43.31480 | 17.94950 | 39082 ft | 457 kts | 141° |
| 2026-04-15 14:29 | 43.26658 | 18.00542 | 39080 ft | 456 kts | 141° |
| 2026-04-15 14:29 | 43.21795 | 18.06158 | 39084 ft | 456 kts | 142° |
| 2026-04-15 14:30 | 43.16934 | 18.11745 | 39084 ft | 456 kts | 142° |
| 2026-04-15 14:30 | 43.12085 | 18.17322 | 39085 ft | 455 kts | 142° |
| 2026-04-15 14:31 | 43.07235 | 18.22902 | 39091 ft | 455 kts | 142° |
| 2026-04-15 14:31 | 43.02393 | 18.28467 | 39094 ft | 454 kts | 142° |
| 2026-04-15 14:32 | 42.97552 | 18.34002 | 39093 ft | 453 kts | 142° |
| 2026-04-15 14:32 | 42.92705 | 18.39523 | 39099 ft | 453 kts | 142° |
| 2026-04-15 14:33 | 42.87867 | 18.45025 | 39104 ft | 453 kts | 142° |
| 2026-04-15 14:33 | 42.83050 | 18.50489 | 39107 ft | 453 kts | 142° |
| 2026-04-15 14:34 | 42.78212 | 18.55981 | 39105 ft | 452 kts | 142° |
| 2026-04-15 14:34 | 42.73372 | 18.61461 | 39106 ft | 452 kts | 142° |
| 2026-04-15 14:35 | 42.68536 | 18.66920 | 39104 ft | 452 kts | 142° |
| 2026-04-15 14:35 | 42.63694 | 18.72370 | 39105 ft | 452 kts | 142° |
| 2026-04-15 14:36 | 42.58849 | 18.77818 | 39103 ft | 452 kts | 142° |
| 2026-04-15 14:36 | 42.54009 | 18.83250 | 39104 ft | 452 kts | 142° |
| 2026-04-15 14:37 | 42.49177 | 18.88658 | 39104 ft | 451 kts | 142° |
| 2026-04-15 14:37 | 42.44335 | 18.94069 | 39103 ft | 452 kts | 142° |
| 2026-04-15 14:38 | 42.39472 | 18.99490 | 39100 ft | 451 kts | 143° |
| 2026-04-15 14:38 | 42.34617 | 19.04892 | 39094 ft | 451 kts | 143° |
| 2026-04-15 14:39 | 42.29764 | 19.10277 | 39090 ft | 451 kts | 143° |
| 2026-04-15 14:39 | 42.24911 | 19.15658 | 39085 ft | 451 kts | 143° |
| 2026-04-15 14:40 | 42.20084 | 19.20983 | 39082 ft | 451 kts | 143° |
| 2026-04-15 14:40 | 42.15229 | 19.26339 | 39083 ft | 451 kts | 143° |
| 2026-04-15 14:41 | 42.10374 | 19.31687 | 39084 ft | 450 kts | 143° |
| 2026-04-15 14:41 | 42.05517 | 19.37034 | 39086 ft | 450 kts | 143° |
| 2026-04-15 14:42 | 42.00657 | 19.42367 | 39084 ft | 450 kts | 143° |
| 2026-04-15 14:42 | 41.95818 | 19.47619 | 39088 ft | 450 kts | 144° |
| 2026-04-15 14:43 | 41.90863 | 19.52725 | 39092 ft | 449 kts | 146° |
| 2026-04-15 14:43 | 41.85870 | 19.57781 | 39089 ft | 449 kts | 145° |
| 2026-04-15 14:44 | 41.80895 | 19.62861 | 39091 ft | 449 kts | 145° |
| 2026-04-15 14:44 | 41.75942 | 19.67950 | 39096 ft | 449 kts | 145° |
| 2026-04-15 14:45 | 41.71818 | 19.72182 | 39096 ft | 449 kts | 145° |
| 2026-04-15 14:45 | 41.66051 | 19.78072 | 39097 ft | 449 kts | 145° |
| 2026-04-15 14:46 | 41.61890 | 19.82312 | 39102 ft | 449 kts | 145° |
| 2026-04-15 14:46 | 41.56916 | 19.87370 | 39105 ft | 449 kts | 145° |
| 2026-04-15 14:47 | 41.51939 | 19.92410 | 39108 ft | 449 kts | 146° |
| 2026-04-15 14:47 | 41.46992 | 19.97409 | 39109 ft | 449 kts | 146° |
| 2026-04-15 14:48 | 41.42017 | 20.02434 | 39109 ft | 449 kts | 146° |
| 2026-04-15 14:48 | 41.37032 | 20.07468 | 39107 ft | 449 kts | 146° |
| 2026-04-15 14:49 | 41.32045 | 20.12494 | 39110 ft | 449 kts | 146° |
| 2026-04-15 14:49 | 41.27057 | 20.17509 | 39114 ft | 450 kts | 146° |
| 2026-04-15 14:50 | 41.22078 | 20.22489 | 39121 ft | 451 kts | 146° |
| 2026-04-15 14:50 | 41.17078 | 20.27495 | 39122 ft | 450 kts | 146° |
| 2026-04-15 14:51 | 41.12085 | 20.32490 | 39110 ft | 450 kts | 146° |
| 2026-04-15 14:51 | 41.07080 | 20.37486 | 39113 ft | 450 kts | 146° |
| 2026-04-15 14:52 | 41.02055 | 20.42486 | 39114 ft | 451 kts | 146° |
| 2026-04-15 14:52 | 40.97041 | 20.47461 | 39109 ft | 450 kts | 146° |
| 2026-04-15 14:53 | 40.92010 | 20.52440 | 39110 ft | 451 kts | 147° |
| 2026-04-15 14:53 | 40.86997 | 20.57397 | 39118 ft | 449 kts | 147° |
| 2026-04-15 14:54 | 40.81984 | 20.62358 | 39102 ft | 451 kts | 147° |
| 2026-04-15 14:54 | 40.76956 | 20.67316 | 39105 ft | 451 kts | 147° |
| 2026-04-15 14:55 | 40.71946 | 20.72249 | 39096 ft | 452 kts | 147° |
| 2026-04-15 14:55 | 40.66908 | 20.77189 | 39109 ft | 452 kts | 147° |
| 2026-04-15 14:56 | 40.61852 | 20.82136 | 39110 ft | 452 kts | 147° |
| 2026-04-15 14:56 | 40.56817 | 20.87072 | 39123 ft | 450 kts | 147° |
| 2026-04-15 14:57 | 40.51792 | 20.91971 | 39124 ft | 450 kts | 147° |
| 2026-04-15 14:57 | 40.46783 | 20.96912 | 39126 ft | 452 kts | 145° |
| 2026-04-15 14:58 | 40.42008 | 21.02276 | 39122 ft | 453 kts | 142° |
| 2026-04-15 14:58 | 40.37332 | 21.07889 | 39141 ft | 455 kts | 141° |
| 2026-04-15 14:59 | 40.32694 | 21.13558 | 39146 ft | 456 kts | 141° |
| 2026-04-15 14:59 | 40.28047 | 21.19197 | 39145 ft | 455 kts | 141° |
| 2026-04-15 15:00 | 40.23385 | 21.24807 | 39156 ft | 455 kts | 142° |
| 2026-04-15 15:00 | 40.18749 | 21.30363 | 39149 ft | 454 kts | 142° |
| 2026-04-15 15:01 | 40.14079 | 21.35948 | 39147 ft | 456 kts | 142° |
| 2026-04-15 15:01 | 40.09386 | 21.41549 | 39158 ft | 455 kts | 142° |
| 2026-04-15 15:02 | 40.04701 | 21.47128 | 39156 ft | 456 kts | 142° |
| 2026-04-15 15:02 | 40.00013 | 21.52733 | 39159 ft | 457 kts | 142° |
| 2026-04-15 15:03 | 39.95317 | 21.58327 | 39151 ft | 457 kts | 142° |
| 2026-04-15 15:03 | 39.90622 | 21.63907 | 39151 ft | 456 kts | 142° |
| 2026-04-15 15:04 | 39.85954 | 21.69434 | 39147 ft | 456 kts | 142° |
| 2026-04-15 15:04 | 39.81254 | 21.74989 | 39156 ft | 456 kts | 142° |
| 2026-04-15 15:05 | 39.76537 | 21.80556 | 39147 ft | 458 kts | 142° |
| 2026-04-15 15:05 | 39.71818 | 21.86117 | 39156 ft | 457 kts | 142° |
| 2026-04-15 15:06 | 39.64759 | 21.94401 | 39156 ft | 459 kts | 142° |
| 2026-04-15 15:06 | 39.60019 | 21.99961 | 39157 ft | 459 kts | 142° |
| 2026-04-15 15:07 | 39.55278 | 22.05504 | 39167 ft | 458 kts | 142° |
| 2026-04-15 15:07 | 39.50552 | 22.11026 | 39164 ft | 459 kts | 142° |
| 2026-04-15 15:08 | 39.45788 | 22.16581 | 39166 ft | 459 kts | 142° |
| 2026-04-15 15:08 | 39.41039 | 22.22110 | 39169 ft | 459 kts | 142° |
| 2026-04-15 15:09 | 39.36285 | 22.27638 | 39169 ft | 460 kts | 142° |
| 2026-04-15 15:09 | 39.31508 | 22.33156 | 39170 ft | 460 kts | 142° |
| 2026-04-15 15:10 | 39.26768 | 22.38633 | 39181 ft | 460 kts | 142° |
| 2026-04-15 15:10 | 39.21991 | 22.44154 | 39183 ft | 461 kts | 142° |
| 2026-04-15 15:11 | 39.17207 | 22.49678 | 39181 ft | 461 kts | 142° |
| 2026-04-15 15:11 | 39.12438 | 22.55165 | 39189 ft | 460 kts | 142° |
| 2026-04-15 15:12 | 39.07657 | 22.60644 | 39194 ft | 460 kts | 142° |
| 2026-04-15 15:12 | 39.02860 | 22.66133 | 39185 ft | 460 kts | 142° |
| 2026-04-15 15:13 | 38.98118 | 22.71551 | 39172 ft | 460 kts | 142° |
| 2026-04-15 15:13 | 38.93328 | 22.77010 | 39180 ft | 458 kts | 142° |
| 2026-04-15 15:14 | 38.88576 | 22.82430 | 39169 ft | 457 kts | 142° |
| 2026-04-15 15:14 | 38.83805 | 22.87864 | 39167 ft | 458 kts | 142° |
| 2026-04-15 15:15 | 38.79043 | 22.93282 | 39159 ft | 458 kts | 142° |
| 2026-04-15 15:15 | 38.74260 | 22.98701 | 39157 ft | 459 kts | 142° |
| 2026-04-15 15:16 | 38.69479 | 23.04102 | 39152 ft | 458 kts | 142° |
| 2026-04-15 15:16 | 38.64702 | 23.09474 | 39153 ft | 457 kts | 142° |
| 2026-04-15 15:17 | 38.59913 | 23.14859 | 39159 ft | 457 kts | 142° |
| 2026-04-15 15:17 | 38.55150 | 23.20213 | 39146 ft | 457 kts | 142° |
| 2026-04-15 15:18 | 38.50402 | 23.25559 | 39140 ft | 458 kts | 142° |
| 2026-04-15 15:18 | 38.45627 | 23.30923 | 39141 ft | 457 kts | 142° |
| 2026-04-15 15:19 | 38.40840 | 23.36281 | 39121 ft | 456 kts | 142° |
| 2026-04-15 15:19 | 38.36057 | 23.41613 | 39112 ft | 456 kts | 142° |
| 2026-04-15 15:20 | 38.31277 | 23.46934 | 39109 ft | 457 kts | 142° |
| 2026-04-15 15:20 | 38.26484 | 23.52272 | 39107 ft | 457 kts | 142° |
| 2026-04-15 15:21 | 38.21704 | 23.57586 | 39108 ft | 457 kts | 142° |
| 2026-04-15 15:21 | 38.16923 | 23.62864 | 39108 ft | 455 kts | 142° |
| 2026-04-15 15:22 | 38.12145 | 23.68144 | 39115 ft | 455 kts | 142° |
| 2026-04-15 15:22 | 38.07356 | 23.73438 | 39113 ft | 456 kts | 142° |
| 2026-04-15 15:23 | 38.02561 | 23.78736 | 39114 ft | 454 kts | 142° |
| 2026-04-15 15:23 | 37.97817 | 23.83942 | 39115 ft | 455 kts | 142° |
| 2026-04-15 15:24 | 37.93020 | 23.89205 | 39121 ft | 456 kts | 142° |
| 2026-04-15 15:24 | 37.88226 | 23.94468 | 39126 ft | 455 kts | 142° |
| 2026-04-15 15:25 | 37.83439 | 23.99701 | 39121 ft | 455 kts | 142° |
| 2026-04-15 15:25 | 37.78649 | 24.04940 | 39124 ft | 455 kts | 142° |
| 2026-04-15 15:26 | 37.73863 | 24.10163 | 39121 ft | 454 kts | 143° |
| 2026-04-15 15:26 | 37.69070 | 24.15376 | 39121 ft | 454 kts | 143° |
| 2026-04-15 15:27 | 37.64297 | 24.20571 | 39115 ft | 455 kts | 143° |
| 2026-04-15 15:27 | 37.59484 | 24.25791 | 39117 ft | 455 kts | 143° |
| 2026-04-15 15:28 | 37.54522 | 24.30704 | 39115 ft | 450 kts | 153° |
| 2026-04-15 15:28 | 37.49085 | 24.34534 | 39115 ft | 451 kts | 155° |
| 2026-04-15 15:29 | 37.43620 | 24.38369 | 39112 ft | 451 kts | 154° |
| 2026-04-15 15:29 | 37.38147 | 24.42220 | 39106 ft | 452 kts | 154° |
| 2026-04-15 15:30 | 37.32648 | 24.46084 | 39106 ft | 452 kts | 154° |
| 2026-04-15 15:30 | 37.28090 | 24.49279 | 39107 ft | 452 kts | 154° |
| 2026-04-15 15:31 | 37.22590 | 24.53121 | 39103 ft | 451 kts | 154° |
| 2026-04-15 15:31 | 37.17109 | 24.56944 | 39095 ft | 451 kts | 154° |
| 2026-04-15 15:32 | 37.11615 | 24.60761 | 39092 ft | 450 kts | 156° |
| 2026-04-15 15:32 | 37.08734 | 24.62184 | 38848 ft | 442 kts | 170° |
| 2026-04-15 15:32 | 37.05735 | 24.63030 | 38542 ft | 440 kts | 171° |
| 2026-04-15 15:33 | 37.02755 | 24.63829 | 38233 ft | 439 kts | 171° |
| 2026-04-15 15:33 | 36.99765 | 24.64614 | 37941 ft | 439 kts | 172° |
| 2026-04-15 15:33 | 36.96775 | 24.65409 | 37647 ft | 440 kts | 171° |
| 2026-04-15 15:33 | 36.93785 | 24.66213 | 37341 ft | 440 kts | 171° |
| 2026-04-15 15:34 | 36.90777 | 24.67013 | 37043 ft | 441 kts | 171° |
| 2026-04-15 15:34 | 36.87787 | 24.67805 | 36742 ft | 441 kts | 171° |
| 2026-04-15 15:34 | 36.84777 | 24.68601 | 36435 ft | 441 kts | 171° |
| 2026-04-15 15:34 | 36.81776 | 24.69397 | 35718 ft | 441 kts | 171° |
| 2026-04-15 15:35 | 36.78802 | 24.70190 | 34885 ft | 444 kts | 171° |
| 2026-04-15 15:35 | 36.75769 | 24.70999 | 34007 ft | 447 kts | 171° |
| 2026-04-15 15:35 | 36.72732 | 24.71810 | 33129 ft | 444 kts | 170° |
| 2026-04-15 15:35 | 36.69730 | 24.72609 | 32251 ft | 437 kts | 170° |
| 2026-04-15 15:36 | 36.66782 | 24.73391 | 31379 ft | 429 kts | 170° |
| 2026-04-15 15:36 | 36.63901 | 24.74157 | 30504 ft | 421 kts | 170° |
| 2026-04-15 15:36 | 36.61051 | 24.74917 | 29642 ft | 414 kts | 170° |
| 2026-04-15 15:36 | 36.58281 | 24.75654 | 29223 ft | 402 kts | 170° |
| 2026-04-15 15:37 | 36.55550 | 24.76382 | 29044 ft | 399 kts | 170° |
| 2026-04-15 15:37 | 36.52831 | 24.77102 | 29049 ft | 399 kts | 170° |
| 2026-04-15 15:37 | 36.47388 | 24.78531 | 28542 ft | 399 kts | 170° |
| 2026-04-15 15:38 | 36.44692 | 24.79238 | 27667 ft | 394 kts | 170° |
| 2026-04-15 15:38 | 36.42018 | 24.79946 | 26789 ft | 389 kts | 170° |
| 2026-04-15 15:38 | 36.39390 | 24.80649 | 25920 ft | 384 kts | 169° |
| 2026-04-15 15:38 | 36.36785 | 24.81337 | 25038 ft | 380 kts | 170° |
| 2026-04-15 15:39 | 36.34194 | 24.82016 | 24155 ft | 376 kts | 170° |
| 2026-04-15 15:39 | 36.31688 | 24.82676 | 23288 ft | 372 kts | 169° |
| 2026-04-15 15:39 | 36.29157 | 24.83343 | 22411 ft | 369 kts | 170° |
| 2026-04-15 15:39 | 36.26651 | 24.83999 | 21527 ft | 367 kts | 170° |
| 2026-04-15 15:40 | 36.24167 | 24.84649 | 20645 ft | 364 kts | 170° |
| 2026-04-15 15:40 | 36.21697 | 24.85295 | 19772 ft | 361 kts | 170° |
| 2026-04-15 15:40 | 36.19269 | 24.85931 | 19256 ft | 350 kts | 170° |
| 2026-04-15 15:40 | 36.16951 | 24.86540 | 19060 ft | 332 kts | 171° |
| 2026-04-15 15:41 | 36.14717 | 24.87123 | 19048 ft | 325 kts | 171° |
| 2026-04-15 15:41 | 36.12500 | 24.87701 | 18491 ft | 325 kts | 171° |
| 2026-04-15 15:41 | 36.10277 | 24.88283 | 17732 ft | 326 kts | 171° |
| 2026-04-15 15:41 | 36.08065 | 24.88864 | 16963 ft | 325 kts | 171° |
| 2026-04-15 15:42 | 36.05866 | 24.89442 | 16216 ft | 322 kts | 170° |
| 2026-04-15 15:42 | 36.03680 | 24.90018 | 15469 ft | 320 kts | 170° |
| 2026-04-15 15:42 | 36.01496 | 24.90592 | 14716 ft | 319 kts | 170° |
| 2026-04-15 15:42 | 35.99374 | 24.91146 | 13999 ft | 317 kts | 169° |
| 2026-04-15 15:43 | 35.97222 | 24.91707 | 13245 ft | 315 kts | 169° |
| 2026-04-15 15:43 | 35.95081 | 24.92263 | 12488 ft | 313 kts | 169° |
| 2026-04-15 15:43 | 35.92959 | 24.92809 | 11738 ft | 310 kts | 169° |
| 2026-04-15 15:43 | 35.90863 | 24.93351 | 11141 ft | 302 kts | 168° |
| 2026-04-15 15:44 | 35.88842 | 24.93874 | 10607 ft | 293 kts | 168° |
| 2026-04-15 15:44 | 35.86869 | 24.94386 | 10108 ft | 285 kts | 167° |
| 2026-04-15 15:44 | 35.84956 | 24.94889 | 9598 ft | 278 kts | 167° |
| 2026-04-15 15:44 | 35.83079 | 24.95377 | 9098 ft | 271 kts | 167° |
| 2026-04-15 15:45 | 35.81255 | 24.95836 | 8628 ft | 268 kts | 167° |
| 2026-04-15 15:45 | 35.79479 | 24.96294 | 8257 ft | 255 kts | 167° |
| 2026-04-15 15:45 | 35.77771 | 24.96732 | 7880 ft | 246 kts | 166° |
| 2026-04-15 15:45 | 35.76127 | 24.97156 | 7503 ft | 237 kts | 165° |
| 2026-04-15 15:46 | 35.74540 | 24.97569 | 7134 ft | 230 kts | 165° |
| 2026-04-15 15:46 | 35.72982 | 24.97980 | 6764 ft | 225 kts | 165° |
| 2026-04-15 15:46 | 35.71478 | 24.98379 | 6387 ft | 220 kts | 165° |
| 2026-04-15 15:46 | 35.70000 | 24.98762 | 6022 ft | 214 kts | 165° |
| 2026-04-15 15:47 | 35.68543 | 24.99139 | 5658 ft | 216 kts | 165° |
| 2026-04-15 15:47 | 35.67056 | 24.99526 | 5292 ft | 220 kts | 165° |
| 2026-04-15 15:47 | 35.65539 | 24.99921 | 4918 ft | 224 kts | 165° |
| 2026-04-15 15:47 | 35.63989 | 25.00322 | 4543 ft | 228 kts | 165° |
| 2026-04-15 15:48 | 35.62445 | 25.00723 | 4173 ft | 227 kts | 165° |
| 2026-04-15 15:48 | 35.60886 | 25.01127 | 3800 ft | 230 kts | 165° |
| 2026-04-15 15:48 | 35.59315 | 25.01533 | 3426 ft | 231 kts | 165° |
| 2026-04-15 15:48 | 35.57725 | 25.01942 | 3057 ft | 234 kts | 165° |
| 2026-04-15 15:49 | 35.56185 | 25.02335 | 2997 ft | 222 kts | 165° |
| 2026-04-15 15:49 | 35.54715 | 25.02706 | 3001 ft | 211 kts | 163° |
| 2026-04-15 15:49 | 35.53360 | 25.03284 | 3020 ft | 204 kts | 149° |
| 2026-04-15 15:49 | 35.52170 | 25.04190 | 3027 ft | 200 kts | 143° |
| 2026-04-15 15:50 | 35.51005 | 25.05125 | 3036 ft | 201 kts | 144° |
| 2026-04-15 15:50 | 35.49829 | 25.06053 | 3012 ft | 199 kts | 144° |
| 2026-04-15 15:50 | 35.48682 | 25.06955 | 2930 ft | 194 kts | 144° |
| 2026-04-15 15:50 | 35.47550 | 25.07837 | 2824 ft | 191 kts | 144° |
| 2026-04-15 15:51 | 35.46359 | 25.08593 | 2722 ft | 195 kts | 160° |
| 2026-04-15 15:51 | 35.45041 | 25.09027 | 2632 ft | 197 kts | 162° |
| 2026-04-15 15:51 | 35.43707 | 25.09451 | 2329 ft | 196 kts | 162° |
| 2026-04-15 15:51 | 35.42428 | 25.09834 | 2116 ft | 182 kts | 163° |
| 2026-04-15 15:52 | 35.41223 | 25.10117 | 1885 ft | 171 kts | 168° |
| 2026-04-15 15:52 | 35.40113 | 25.10317 | 1774 ft | 154 kts | 169° |
| 2026-04-15 15:52 | 35.39075 | 25.10481 | 1608 ft | 150 kts | 169° |
| 2026-04-15 15:52 | 35.38047 | 25.10605 | 1411 ft | 147 kts | 173° |
| 2026-04-15 15:53 | 35.37036 | 25.10708 | 1180 ft | 145 kts | 169° |
| 2026-04-15 15:53 | 35.36078 | 25.11042 | 993 ft | 143 kts | 152° |
| 2026-04-15 15:53 | 35.35287 | 25.11746 | 821 ft | 140 kts | 131° |
| 2026-04-15 15:53 | 35.34711 | 25.12710 | 700 ft | 141 kts | 118° |
| 2026-04-15 15:54 | 35.34325 | 25.13797 | 592 ft | 139 kts | 105° |
| 2026-04-15 15:54 | 35.34191 | 25.14966 | 421 ft | 138 kts | 92° |
| 2026-04-15 15:54 | 35.34111 | 25.16119 | 211 ft | 138 kts | 94° |
| 2026-04-15 15:54 | 35.34029 | 25.17260 | 94 ft | 125 kts | 94° |
| 2026-04-15 15:55 | 35.33976 | 25.18021 | 93 ft | 56 kts | 95° |
| 2026-04-15 15:55 | 35.33951 | 25.18376 | 93 ft | 14 kts | 97° |
| 2026-04-15 15:55 | 35.33902 | 25.18418 | 91 ft | 9 kts | 192° |
| 2026-04-15 15:55 | 35.33856 | 25.18390 | 93 ft | 6 kts | 248° |
| 2026-04-15 15:56 | 35.33854 | 25.18345 | 91 ft | 4 kts | 271° |
| 2026-04-15 15:56 | 35.33857 | 25.18290 | 95 ft | 11 kts | 274° |
| 2026-04-15 15:56 | 35.33864 | 25.18178 | 93 ft | 13 kts | 275° |
| 2026-04-15 15:56 | 35.33872 | 25.18072 | 93 ft | 15 kts | 275° |
| 2026-04-15 15:57 | 35.33883 | 25.17900 | 94 ft | 25 kts | 274° |
| 2026-04-15 15:57 | 35.33899 | 25.17680 | 94 ft | 25 kts | 275° |
| 2026-04-15 15:57 | 35.33911 | 25.17496 | 91 ft | 20 kts | 275° |
| 2026-04-15 15:57 | 35.33901 | 25.17384 | 91 ft | 9 kts | 208° |
| 2026-04-15 15:58 | 35.33849 | 25.17373 | 92 ft | 4 kts | 185° |
| 2026-04-15 15:58 | 35.33836 | 25.17361 | 91 ft | 2 kts | 247° |
| 2026-04-15 15:58 | 35.33851 | 25.17313 | 92 ft | 8 kts | 315° |
| 2026-04-15 15:58 | 35.33873 | 25.17287 | 91 ft | 0 kts | 315° |